sensor_id;sensor_type;location;lat;lon;timestamp;temperature;humidity
59146;DHT22;44928;53.074;6.646;2024-02-26T00:02:25;3.30;99.90
59146;DHT22;44928;53.074;6.646;2024-02-26T00:04:51;3.30;99.90
59146;DHT22;44928;53.074;6.646;2024-02-26T00:07:17;3.30;99.90
59146;DHT22;44928;53.074;6.646;2024-02-26T00:09:42;3.30;99.90
59146;DHT22;44928;53.074;6.646;2024-02-26T00:12:08;3.30;99.90
59146;DHT22;44928;53.074;6.646;2024-02-26T00:14:34;3.30;99.90
59146;DHT22;44928;53.074;6.646;2024-02-26T00:17:00;3.30;99.90
59146;DHT22;44928;53.074;6.646;2024-02-26T00:19:26;3.30;99.90
59146;DHT22;44928;53.074;6.646;2024-02-26T00:21:52;3.30;99.90
59146;DHT22;44928;53.074;6.646;2024-02-26T00:24:19;3.30;99.90
59146;DHT22;44928;53.074;6.646;2024-02-26T00:26:45;3.30;99.90
59146;DHT22;44928;53.074;6.646;2024-02-26T00:29:11;3.30;99.90
59146;DHT22;44928;53.074;6.646;2024-02-26T00:31:37;3.30;99.90
59146;DHT22;44928;53.074;6.646;2024-02-26T00:34:05;3.40;99.90
59146;DHT22;44928;53.074;6.646;2024-02-26T00:36:31;3.40;99.90
59146;DHT22;44928;53.074;6.646;2024-02-26T00:38:57;3.40;99.90
59146;DHT22;44928;53.074;6.646;2024-02-26T00:41:23;3.40;99.90
59146;DHT22;44928;53.074;6.646;2024-02-26T00:43:48;3.50;99.90
59146;DHT22;44928;53.074;6.646;2024-02-26T00:46:14;3.50;99.90
59146;DHT22;44928;53.074;6.646;2024-02-26T00:48:40;3.50;99.90
59146;DHT22;44928;53.074;6.646;2024-02-26T00:51:06;3.50;99.90
59146;DHT22;44928;53.074;6.646;2024-02-26T00:53:33;3.60;99.90
59146;DHT22;44928;53.074;6.646;2024-02-26T00:55:59;3.60;99.90
59146;DHT22;44928;53.074;6.646;2024-02-26T00:58:25;3.60;99.90
59146;DHT22;44928;53.074;6.646;2024-02-26T01:00:51;3.60;99.90
59146;DHT22;44928;53.074;6.646;2024-02-26T01:03:20;3.60;99.90
59146;DHT22;44928;53.074;6.646;2024-02-26T01:05:46;3.60;99.90
59146;DHT22;44928;53.074;6.646;2024-02-26T01:08:11;3.60;99.90
59146;DHT22;44928;53.074;6.646;2024-02-26T01:10:37;3.60;99.90
59146;DHT22;44928;53.074;6.646;2024-02-26T01:13:03;3.70;99.90
59146;DHT22;44928;53.074;6.646;2024-02-26T01:15:29;3.70;99.90
59146;DHT22;44928;53.074;6.646;2024-02-26T01:17:55;3.70;99.90
59146;DHT22;44928;53.074;6.646;2024-02-26T01:20:20;3.70;99.90
59146;DHT22;44928;53.074;6.646;2024-02-26T01:22:46;3.70;99.90
59146;DHT22;44928;53.074;6.646;2024-02-26T01:25:12;3.80;99.90
59146;DHT22;44928;53.074;6.646;2024-02-26T01:27:39;3.70;99.90
59146;DHT22;44928;53.074;6.646;2024-02-26T01:30:07;3.70;99.90
59146;DHT22;44928;53.074;6.646;2024-02-26T01:32:33;3.70;99.90
59146;DHT22;44928;53.074;6.646;2024-02-26T01:34:59;3.80;99.90
59146;DHT22;44928;53.074;6.646;2024-02-26T01:37:24;3.80;99.90
59146;DHT22;44928;53.074;6.646;2024-02-26T01:39:51;3.70;99.90
59146;DHT22;44928;53.074;6.646;2024-02-26T01:42:16;3.70;99.90
59146;DHT22;44928;53.074;6.646;2024-02-26T01:44:42;3.70;99.90
59146;DHT22;44928;53.074;6.646;2024-02-26T01:47:11;3.70;99.90
59146;DHT22;44928;53.074;6.646;2024-02-26T01:49:38;3.70;99.90
59146;DHT22;44928;53.074;6.646;2024-02-26T01:52:06;3.70;99.90
59146;DHT22;44928;53.074;6.646;2024-02-26T01:54:35;3.70;99.90
59146;DHT22;44928;53.074;6.646;2024-02-26T01:57:03;3.70;99.90
59146;DHT22;44928;53.074;6.646;2024-02-26T01:59:30;3.70;99.90
59146;DHT22;44928;53.074;6.646;2024-02-26T02:01:59;3.70;99.90
59146;DHT22;44928;53.074;6.646;2024-02-26T02:04:28;3.70;99.90
59146;DHT22;44928;53.074;6.646;2024-02-26T02:06:54;3.70;99.90
59146;DHT22;44928;53.074;6.646;2024-02-26T02:09:20;3.70;99.90
59146;DHT22;44928;53.074;6.646;2024-02-26T02:11:47;3.70;99.90
59146;DHT22;44928;53.074;6.646;2024-02-26T02:14:14;3.70;99.90
59146;DHT22;44928;53.074;6.646;2024-02-26T02:16:40;3.70;99.90
59146;DHT22;44928;53.074;6.646;2024-02-26T02:19:06;3.70;99.90
59146;DHT22;44928;53.074;6.646;2024-02-26T02:21:31;3.70;99.90
59146;DHT22;44928;53.074;6.646;2024-02-26T02:23:57;3.70;99.90
59146;DHT22;44928;53.074;6.646;2024-02-26T02:26:23;3.80;99.90
59146;DHT22;44928;53.074;6.646;2024-02-26T02:28:49;3.70;99.90
59146;DHT22;44928;53.074;6.646;2024-02-26T02:31:15;3.80;99.90
59146;DHT22;44928;53.074;6.646;2024-02-26T02:33:41;3.80;99.90
59146;DHT22;44928;53.074;6.646;2024-02-26T02:36:08;3.80;99.90
59146;DHT22;44928;53.074;6.646;2024-02-26T02:38:38;3.80;99.90
59146;DHT22;44928;53.074;6.646;2024-02-26T02:41:14;3.80;99.90
59146;DHT22;44928;53.074;6.646;2024-02-26T02:43:40;3.80;99.90
59146;DHT22;44928;53.074;6.646;2024-02-26T02:46:06;3.80;99.90
59146;DHT22;44928;53.074;6.646;2024-02-26T02:48:31;3.80;99.90
59146;DHT22;44928;53.074;6.646;2024-02-26T02:50:57;3.90;99.90
59146;DHT22;44928;53.074;6.646;2024-02-26T02:53:23;3.90;99.90
59146;DHT22;44928;53.074;6.646;2024-02-26T02:55:49;3.90;99.90
59146;DHT22;44928;53.074;6.646;2024-02-26T02:58:14;3.90;99.90
59146;DHT22;44928;53.074;6.646;2024-02-26T03:00:40;3.90;99.90
59146;DHT22;44928;53.074;6.646;2024-02-26T03:03:06;4.00;99.90
59146;DHT22;44928;53.074;6.646;2024-02-26T03:05:32;4.00;99.90
59146;DHT22;44928;53.074;6.646;2024-02-26T03:07:58;4.00;99.90
59146;DHT22;44928;53.074;6.646;2024-02-26T03:10:23;4.00;99.90
59146;DHT22;44928;53.074;6.646;2024-02-26T03:12:50;4.00;99.90
59146;DHT22;44928;53.074;6.646;2024-02-26T03:15:16;4.00;99.90
59146;DHT22;44928;53.074;6.646;2024-02-26T03:17:41;4.10;99.90
59146;DHT22;44928;53.074;6.646;2024-02-26T03:20:08;4.00;99.90
59146;DHT22;44928;53.074;6.646;2024-02-26T03:22:35;4.00;99.90
59146;DHT22;44928;53.074;6.646;2024-02-26T03:25:01;4.00;99.90
59146;DHT22;44928;53.074;6.646;2024-02-26T03:27:27;4.00;99.90
59146;DHT22;44928;53.074;6.646;2024-02-26T03:29:53;4.00;99.90
59146;DHT22;44928;53.074;6.646;2024-02-26T03:32:18;4.00;99.90
59146;DHT22;44928;53.074;6.646;2024-02-26T03:34:44;4.00;99.90
59146;DHT22;44928;53.074;6.646;2024-02-26T03:37:10;4.00;99.90
59146;DHT22;44928;53.074;6.646;2024-02-26T03:39:36;4.00;99.90
59146;DHT22;44928;53.074;6.646;2024-02-26T03:42:03;4.00;99.90
59146;DHT22;44928;53.074;6.646;2024-02-26T03:44:29;4.00;99.90
59146;DHT22;44928;53.074;6.646;2024-02-26T03:46:55;4.00;99.90
59146;DHT22;44928;53.074;6.646;2024-02-26T03:49:21;4.00;99.90
59146;DHT22;44928;53.074;6.646;2024-02-26T03:51:48;3.90;99.90
59146;DHT22;44928;53.074;6.646;2024-02-26T03:54:14;4.00;99.90
59146;DHT22;44928;53.074;6.646;2024-02-26T03:56:40;3.90;99.90
59146;DHT22;44928;53.074;6.646;2024-02-26T03:59:06;3.90;99.90
59146;DHT22;44928;53.074;6.646;2024-02-26T04:01:31;3.90;99.90
59146;DHT22;44928;53.074;6.646;2024-02-26T04:03:57;3.90;99.90
59146;DHT22;44928;53.074;6.646;2024-02-26T04:06:23;3.80;99.90
59146;DHT22;44928;53.074;6.646;2024-02-26T04:08:49;3.80;99.90
59146;DHT22;44928;53.074;6.646;2024-02-26T04:11:14;3.80;99.90
59146;DHT22;44928;53.074;6.646;2024-02-26T04:13:44;3.80;99.90
59146;DHT22;44928;53.074;6.646;2024-02-26T04:16:15;3.80;99.90
59146;DHT22;44928;53.074;6.646;2024-02-26T04:18:42;3.80;99.90
59146;DHT22;44928;53.074;6.646;2024-02-26T04:21:08;3.80;99.90
59146;DHT22;44928;53.074;6.646;2024-02-26T04:23:34;3.80;99.90
59146;DHT22;44928;53.074;6.646;2024-02-26T04:26:00;3.80;99.90
59146;DHT22;44928;53.074;6.646;2024-02-26T04:28:25;3.80;99.90
59146;DHT22;44928;53.074;6.646;2024-02-26T04:30:54;3.70;99.90
59146;DHT22;44928;53.074;6.646;2024-02-26T04:33:20;3.80;99.90
59146;DHT22;44928;53.074;6.646;2024-02-26T04:35:46;3.80;99.90
59146;DHT22;44928;53.074;6.646;2024-02-26T04:38:12;3.70;99.90
59146;DHT22;44928;53.074;6.646;2024-02-26T04:40:37;3.80;99.90
59146;DHT22;44928;53.074;6.646;2024-02-26T04:43:03;3.70;99.90
59146;DHT22;44928;53.074;6.646;2024-02-26T04:45:29;3.80;99.90
59146;DHT22;44928;53.074;6.646;2024-02-26T04:47:55;3.70;99.90
59146;DHT22;44928;53.074;6.646;2024-02-26T04:50:21;3.70;99.90
59146;DHT22;44928;53.074;6.646;2024-02-26T04:52:47;3.80;99.90
59146;DHT22;44928;53.074;6.646;2024-02-26T04:55:12;3.80;99.90
59146;DHT22;44928;53.074;6.646;2024-02-26T04:57:38;3.80;99.90
59146;DHT22;44928;53.074;6.646;2024-02-26T05:00:05;3.80;99.90
59146;DHT22;44928;53.074;6.646;2024-02-26T05:02:31;3.80;99.90
59146;DHT22;44928;53.074;6.646;2024-02-26T05:04:59;3.80;99.90
59146;DHT22;44928;53.074;6.646;2024-02-26T05:07:24;3.70;99.90
59146;DHT22;44928;53.074;6.646;2024-02-26T05:09:50;3.80;99.90
59146;DHT22;44928;53.074;6.646;2024-02-26T05:12:16;3.80;99.90
59146;DHT22;44928;53.074;6.646;2024-02-26T05:14:42;3.70;99.90
59146;DHT22;44928;53.074;6.646;2024-02-26T05:17:08;3.70;99.90
59146;DHT22;44928;53.074;6.646;2024-02-26T05:19:34;3.80;99.90
59146;DHT22;44928;53.074;6.646;2024-02-26T05:22:00;3.80;99.90
59146;DHT22;44928;53.074;6.646;2024-02-26T05:24:25;3.80;99.90
59146;DHT22;44928;53.074;6.646;2024-02-26T05:26:51;3.80;99.90
59146;DHT22;44928;53.074;6.646;2024-02-26T05:29:17;3.80;99.90
59146;DHT22;44928;53.074;6.646;2024-02-26T05:31:43;3.70;99.90
59146;DHT22;44928;53.074;6.646;2024-02-26T05:34:09;3.80;99.90
59146;DHT22;44928;53.074;6.646;2024-02-26T05:36:35;3.80;99.90
59146;DHT22;44928;53.074;6.646;2024-02-26T05:39:01;3.80;99.90
59146;DHT22;44928;53.074;6.646;2024-02-26T05:41:27;3.70;99.90
59146;DHT22;44928;53.074;6.646;2024-02-26T05:43:53;3.80;99.90
59146;DHT22;44928;53.074;6.646;2024-02-26T05:46:20;3.80;99.90
59146;DHT22;44928;53.074;6.646;2024-02-26T05:48:52;3.80;99.90
59146;DHT22;44928;53.074;6.646;2024-02-26T05:51:19;3.80;99.90
59146;DHT22;44928;53.074;6.646;2024-02-26T05:53:44;3.80;99.90
59146;DHT22;44928;53.074;6.646;2024-02-26T05:56:12;3.80;99.90
59146;DHT22;44928;53.074;6.646;2024-02-26T05:58:38;3.80;99.90
59146;DHT22;44928;53.074;6.646;2024-02-26T06:01:04;3.80;99.90
59146;DHT22;44928;53.074;6.646;2024-02-26T06:03:29;3.80;99.90
59146;DHT22;44928;53.074;6.646;2024-02-26T06:05:55;3.80;99.90
59146;DHT22;44928;53.074;6.646;2024-02-26T06:08:21;3.80;99.90
59146;DHT22;44928;53.074;6.646;2024-02-26T06:10:47;3.80;99.90
59146;DHT22;44928;53.074;6.646;2024-02-26T06:13:13;3.80;99.90
59146;DHT22;44928;53.074;6.646;2024-02-26T06:15:39;3.80;99.90
59146;DHT22;44928;53.074;6.646;2024-02-26T06:18:05;3.80;99.90
59146;DHT22;44928;53.074;6.646;2024-02-26T06:20:30;3.80;99.90
59146;DHT22;44928;53.074;6.646;2024-02-26T06:22:56;3.80;99.90
59146;DHT22;44928;53.074;6.646;2024-02-26T06:25:22;3.80;99.90
59146;DHT22;44928;53.074;6.646;2024-02-26T06:27:48;3.80;99.90
59146;DHT22;44928;53.074;6.646;2024-02-26T06:30:13;3.80;99.90
59146;DHT22;44928;53.074;6.646;2024-02-26T06:32:39;3.80;99.90
59146;DHT22;44928;53.074;6.646;2024-02-26T06:35:05;3.90;99.90
59146;DHT22;44928;53.074;6.646;2024-02-26T06:37:35;3.90;99.90
59146;DHT22;44928;53.074;6.646;2024-02-26T06:40:02;3.90;99.90
59146;DHT22;44928;53.074;6.646;2024-02-26T06:42:30;3.90;99.90
59146;DHT22;44928;53.074;6.646;2024-02-26T06:44:56;3.90;99.90
59146;DHT22;44928;53.074;6.646;2024-02-26T06:47:22;3.90;99.90
59146;DHT22;44928;53.074;6.646;2024-02-26T06:49:47;3.90;99.90
59146;DHT22;44928;53.074;6.646;2024-02-26T06:52:13;3.90;99.90
59146;DHT22;44928;53.074;6.646;2024-02-26T06:54:39;3.90;99.90
59146;DHT22;44928;53.074;6.646;2024-02-26T06:57:05;3.90;99.90
59146;DHT22;44928;53.074;6.646;2024-02-26T06:59:30;3.90;99.90
59146;DHT22;44928;53.074;6.646;2024-02-26T07:01:56;3.90;99.90
59146;DHT22;44928;53.074;6.646;2024-02-26T07:04:22;3.90;99.90
59146;DHT22;44928;53.074;6.646;2024-02-26T07:06:48;3.90;99.90
59146;DHT22;44928;53.074;6.646;2024-02-26T07:09:14;4.00;99.90
59146;DHT22;44928;53.074;6.646;2024-02-26T07:11:39;4.00;99.90
59146;DHT22;44928;53.074;6.646;2024-02-26T07:14:09;4.00;99.90
59146;DHT22;44928;53.074;6.646;2024-02-26T07:16:36;4.00;99.90
59146;DHT22;44928;53.074;6.646;2024-02-26T07:19:02;4.00;99.90
59146;DHT22;44928;53.074;6.646;2024-02-26T07:21:28;4.00;99.90
59146;DHT22;44928;53.074;6.646;2024-02-26T07:23:54;4.00;99.90
59146;DHT22;44928;53.074;6.646;2024-02-26T07:26:19;4.10;99.90
59146;DHT22;44928;53.074;6.646;2024-02-26T07:28:46;4.10;99.90
59146;DHT22;44928;53.074;6.646;2024-02-26T07:31:12;4.10;99.90
59146;DHT22;44928;53.074;6.646;2024-02-26T07:33:38;4.10;99.90
59146;DHT22;44928;53.074;6.646;2024-02-26T07:36:04;4.10;99.90
59146;DHT22;44928;53.074;6.646;2024-02-26T07:38:30;4.10;99.90
59146;DHT22;44928;53.074;6.646;2024-02-26T07:40:56;4.10;99.90
59146;DHT22;44928;53.074;6.646;2024-02-26T07:43:22;4.20;99.90
59146;DHT22;44928;53.074;6.646;2024-02-26T07:45:48;4.10;99.90
59146;DHT22;44928;53.074;6.646;2024-02-26T07:48:14;4.10;99.90
59146;DHT22;44928;53.074;6.646;2024-02-26T07:50:40;4.10;99.90
59146;DHT22;44928;53.074;6.646;2024-02-26T07:53:06;4.10;99.90
59146;DHT22;44928;53.074;6.646;2024-02-26T07:55:32;4.20;99.90
59146;DHT22;44928;53.074;6.646;2024-02-26T07:57:57;4.20;99.90
59146;DHT22;44928;53.074;6.646;2024-02-26T08:00:23;4.20;99.90
59146;DHT22;44928;53.074;6.646;2024-02-26T08:02:49;4.20;99.90
59146;DHT22;44928;53.074;6.646;2024-02-26T08:05:15;4.20;99.90
59146;DHT22;44928;53.074;6.646;2024-02-26T08:07:41;4.20;99.90
59146;DHT22;44928;53.074;6.646;2024-02-26T08:10:07;4.20;99.90
59146;DHT22;44928;53.074;6.646;2024-02-26T08:12:33;4.20;99.90
59146;DHT22;44928;53.074;6.646;2024-02-26T08:14:59;4.30;99.90
59146;DHT22;44928;53.074;6.646;2024-02-26T08:17:25;4.30;99.90
59146;DHT22;44928;53.074;6.646;2024-02-26T08:19:52;4.30;99.90
59146;DHT22;44928;53.074;6.646;2024-02-26T08:22:18;4.30;99.90
59146;DHT22;44928;53.074;6.646;2024-02-26T08:24:44;4.30;99.90
59146;DHT22;44928;53.074;6.646;2024-02-26T08:27:10;4.30;99.90
59146;DHT22;44928;53.074;6.646;2024-02-26T08:29:36;4.40;99.90
59146;DHT22;44928;53.074;6.646;2024-02-26T08:32:02;4.40;99.90
59146;DHT22;44928;53.074;6.646;2024-02-26T08:34:27;4.40;99.90
59146;DHT22;44928;53.074;6.646;2024-02-26T08:36:53;4.40;99.90
59146;DHT22;44928;53.074;6.646;2024-02-26T08:39:19;4.40;99.90
59146;DHT22;44928;53.074;6.646;2024-02-26T08:41:46;4.50;99.90
59146;DHT22;44928;53.074;6.646;2024-02-26T08:44:11;4.50;99.90
59146;DHT22;44928;53.074;6.646;2024-02-26T08:46:37;4.50;99.90
59146;DHT22;44928;53.074;6.646;2024-02-26T08:49:04;4.50;99.90
59146;DHT22;44928;53.074;6.646;2024-02-26T08:51:29;4.60;99.90
59146;DHT22;44928;53.074;6.646;2024-02-26T08:53:55;4.60;99.90
59146;DHT22;44928;53.074;6.646;2024-02-26T08:56:21;4.60;99.90
59146;DHT22;44928;53.074;6.646;2024-02-26T08:58:47;4.60;99.90
59146;DHT22;44928;53.074;6.646;2024-02-26T09:01:19;4.60;99.90
59146;DHT22;44928;53.074;6.646;2024-02-26T09:03:45;4.60;99.90
59146;DHT22;44928;53.074;6.646;2024-02-26T09:06:11;4.70;99.90
59146;DHT22;44928;53.074;6.646;2024-02-26T09:08:39;4.70;99.90
59146;DHT22;44928;53.074;6.646;2024-02-26T09:11:05;4.70;99.90
59146;DHT22;44928;53.074;6.646;2024-02-26T09:13:32;4.70;99.90
59146;DHT22;44928;53.074;6.646;2024-02-26T09:15:58;4.70;99.90
59146;DHT22;44928;53.074;6.646;2024-02-26T09:18:24;4.80;99.90
59146;DHT22;44928;53.074;6.646;2024-02-26T09:20:50;4.80;99.90
59146;DHT22;44928;53.074;6.646;2024-02-26T09:23:16;4.80;99.90
59146;DHT22;44928;53.074;6.646;2024-02-26T09:25:42;4.80;99.90
59146;DHT22;44928;53.074;6.646;2024-02-26T09:28:08;4.90;99.90
59146;DHT22;44928;53.074;6.646;2024-02-26T09:30:34;4.90;99.90
59146;DHT22;44928;53.074;6.646;2024-02-26T09:32:59;4.90;99.90
59146;DHT22;44928;53.074;6.646;2024-02-26T09:35:25;4.90;99.90
59146;DHT22;44928;53.074;6.646;2024-02-26T09:37:52;4.90;99.90
59146;DHT22;44928;53.074;6.646;2024-02-26T09:40:19;5.00;99.90
59146;DHT22;44928;53.074;6.646;2024-02-26T09:42:45;5.00;99.90
59146;DHT22;44928;53.074;6.646;2024-02-26T09:45:19;5.00;99.90
59146;DHT22;44928;53.074;6.646;2024-02-26T09:47:48;5.10;99.90
59146;DHT22;44928;53.074;6.646;2024-02-26T09:50:15;5.10;99.90
59146;DHT22;44928;53.074;6.646;2024-02-26T09:52:43;5.10;99.90
59146;DHT22;44928;53.074;6.646;2024-02-26T09:55:09;5.10;99.90
59146;DHT22;44928;53.074;6.646;2024-02-26T09:57:37;5.20;99.90
59146;DHT22;44928;53.074;6.646;2024-02-26T10:00:04;5.20;99.90
59146;DHT22;44928;53.074;6.646;2024-02-26T10:02:31;5.20;99.90
59146;DHT22;44928;53.074;6.646;2024-02-26T10:04:59;5.20;99.90
59146;DHT22;44928;53.074;6.646;2024-02-26T10:07:30;5.20;99.90
59146;DHT22;44928;53.074;6.646;2024-02-26T10:09:57;5.20;99.90
59146;DHT22;44928;53.074;6.646;2024-02-26T10:12:23;5.30;99.90
59146;DHT22;44928;53.074;6.646;2024-02-26T10:14:51;5.20;99.90
59146;DHT22;44928;53.074;6.646;2024-02-26T10:17:19;5.20;99.90
59146;DHT22;44928;53.074;6.646;2024-02-26T10:19:45;5.30;99.90
59146;DHT22;44928;53.074;6.646;2024-02-26T10:22:11;5.30;99.90
59146;DHT22;44928;53.074;6.646;2024-02-26T10:24:37;5.30;99.90
59146;DHT22;44928;53.074;6.646;2024-02-26T10:27:03;5.30;99.90
59146;DHT22;44928;53.074;6.646;2024-02-26T10:29:30;5.40;99.90
59146;DHT22;44928;53.074;6.646;2024-02-26T10:31:56;5.30;99.90
59146;DHT22;44928;53.074;6.646;2024-02-26T10:34:22;5.40;99.90
59146;DHT22;44928;53.074;6.646;2024-02-26T10:36:49;5.40;99.90
59146;DHT22;44928;53.074;6.646;2024-02-26T10:39:15;5.50;99.90
59146;DHT22;44928;53.074;6.646;2024-02-26T10:41:42;5.50;99.90
59146;DHT22;44928;53.074;6.646;2024-02-26T10:44:12;5.50;99.90
59146;DHT22;44928;53.074;6.646;2024-02-26T10:46:40;5.50;99.90
59146;DHT22;44928;53.074;6.646;2024-02-26T10:49:13;5.60;99.90
59146;DHT22;44928;53.074;6.646;2024-02-26T10:51:44;5.60;99.90
59146;DHT22;44928;53.074;6.646;2024-02-26T10:54:15;5.60;99.90
59146;DHT22;44928;53.074;6.646;2024-02-26T10:56:42;5.60;99.90
59146;DHT22;44928;53.074;6.646;2024-02-26T10:59:12;5.60;99.90
59146;DHT22;44928;53.074;6.646;2024-02-26T11:01:39;5.70;99.90
59146;DHT22;44928;53.074;6.646;2024-02-26T11:04:08;5.70;99.90
59146;DHT22;44928;53.074;6.646;2024-02-26T11:06:34;5.70;99.90
59146;DHT22;44928;53.074;6.646;2024-02-26T11:09:01;5.70;99.90
59146;DHT22;44928;53.074;6.646;2024-02-26T11:11:30;5.80;99.90
59146;DHT22;44928;53.074;6.646;2024-02-26T11:13:57;5.80;99.90
59146;DHT22;44928;53.074;6.646;2024-02-26T11:16:26;5.80;99.90
59146;DHT22;44928;53.074;6.646;2024-02-26T11:18:53;5.80;99.90
59146;DHT22;44928;53.074;6.646;2024-02-26T11:21:21;5.90;99.90
59146;DHT22;44928;53.074;6.646;2024-02-26T11:24:09;5.90;99.90
59146;DHT22;44928;53.074;6.646;2024-02-26T11:26:43;5.90;99.90
59146;DHT22;44928;53.074;6.646;2024-02-26T11:29:11;6.00;99.90
59146;DHT22;44928;53.074;6.646;2024-02-26T11:31:39;6.00;99.90
59146;DHT22;44928;53.074;6.646;2024-02-26T11:34:07;6.10;99.90
59146;DHT22;44928;53.074;6.646;2024-02-26T11:36:33;6.10;99.90
59146;DHT22;44928;53.074;6.646;2024-02-26T11:38:59;6.10;99.90
59146;DHT22;44928;53.074;6.646;2024-02-26T11:41:25;6.20;99.90
59146;DHT22;44928;53.074;6.646;2024-02-26T11:44:03;6.20;99.90
59146;DHT22;44928;53.074;6.646;2024-02-26T11:46:42;6.20;99.90
59146;DHT22;44928;53.074;6.646;2024-02-26T11:51:57;6.30;99.90
59146;DHT22;44928;53.074;6.646;2024-02-26T11:54:49;6.30;99.90
59146;DHT22;44928;53.074;6.646;2024-02-26T11:57:28;6.30;99.90
59146;DHT22;44928;53.074;6.646;2024-02-26T11:59:55;6.40;99.90
59146;DHT22;44928;53.074;6.646;2024-02-26T12:05:11;6.40;99.90
59146;DHT22;44928;53.074;6.646;2024-02-26T12:07:40;6.40;99.90
59146;DHT22;44928;53.074;6.646;2024-02-26T12:10:30;6.50;99.90
59146;DHT22;44928;53.074;6.646;2024-02-26T12:13:00;6.50;99.90
59146;DHT22;44928;53.074;6.646;2024-02-26T12:15:37;6.50;99.90
59146;DHT22;44928;53.074;6.646;2024-02-26T12:18:04;6.50;99.90
59146;DHT22;44928;53.074;6.646;2024-02-26T12:20:33;6.50;99.90
59146;DHT22;44928;53.074;6.646;2024-02-26T12:23:02;6.50;99.90
59146;DHT22;44928;53.074;6.646;2024-02-26T12:25:29;6.60;99.90
59146;DHT22;44928;53.074;6.646;2024-02-26T12:27:56;6.60;99.90
59146;DHT22;44928;53.074;6.646;2024-02-26T12:30:22;6.60;99.90
59146;DHT22;44928;53.074;6.646;2024-02-26T12:32:50;6.60;99.90
59146;DHT22;44928;53.074;6.646;2024-02-26T12:35:16;6.60;99.90
59146;DHT22;44928;53.074;6.646;2024-02-26T12:37:43;6.60;99.90
59146;DHT22;44928;53.074;6.646;2024-02-26T12:40:11;6.60;99.90
59146;DHT22;44928;53.074;6.646;2024-02-26T12:42:38;6.60;99.90
59146;DHT22;44928;53.074;6.646;2024-02-26T12:45:09;6.70;99.90
59146;DHT22;44928;53.074;6.646;2024-02-26T12:47:36;6.60;99.90
59146;DHT22;44928;53.074;6.646;2024-02-26T12:50:03;6.60;99.90
59146;DHT22;44928;53.074;6.646;2024-02-26T12:52:33;6.60;99.90
59146;DHT22;44928;53.074;6.646;2024-02-26T12:55:01;6.60;99.90
59146;DHT22;44928;53.074;6.646;2024-02-26T12:57:31;6.60;99.90
59146;DHT22;44928;53.074;6.646;2024-02-26T13:00:01;6.60;99.90
59146;DHT22;44928;53.074;6.646;2024-02-26T13:02:27;6.50;99.90
59146;DHT22;44928;53.074;6.646;2024-02-26T13:04:54;6.50;99.90
59146;DHT22;44928;53.074;6.646;2024-02-26T13:07:21;6.50;99.90
59146;DHT22;44928;53.074;6.646;2024-02-26T13:09:47;6.40;99.90
59146;DHT22;44928;53.074;6.646;2024-02-26T13:12:13;6.40;99.90
59146;DHT22;44928;53.074;6.646;2024-02-26T13:14:39;6.40;99.90
59146;DHT22;44928;53.074;6.646;2024-02-26T13:17:05;6.30;99.90
59146;DHT22;44928;53.074;6.646;2024-02-26T13:19:31;6.30;99.90
59146;DHT22;44928;53.074;6.646;2024-02-26T13:22:03;6.30;99.90
59146;DHT22;44928;53.074;6.646;2024-02-26T13:24:29;6.20;99.90
59146;DHT22;44928;53.074;6.646;2024-02-26T13:26:56;6.10;99.90
59146;DHT22;44928;53.074;6.646;2024-02-26T13:29:22;6.10;99.90
59146;DHT22;44928;53.074;6.646;2024-02-26T13:31:48;6.10;99.90
59146;DHT22;44928;53.074;6.646;2024-02-26T13:34:28;6.00;99.90
59146;DHT22;44928;53.074;6.646;2024-02-26T13:36:56;6.10;99.90
59146;DHT22;44928;53.074;6.646;2024-02-26T13:39:27;6.00;99.90
59146;DHT22;44928;53.074;6.646;2024-02-26T13:41:53;6.00;99.90
59146;DHT22;44928;53.074;6.646;2024-02-26T13:44:20;6.00;99.90
59146;DHT22;44928;53.074;6.646;2024-02-26T13:46:47;6.00;99.90
59146;DHT22;44928;53.074;6.646;2024-02-26T13:49:13;6.00;99.90
59146;DHT22;44928;53.074;6.646;2024-02-26T13:51:39;6.00;99.90
59146;DHT22;44928;53.074;6.646;2024-02-26T13:54:05;6.00;99.90
59146;DHT22;44928;53.074;6.646;2024-02-26T13:56:31;6.00;99.90
59146;DHT22;44928;53.074;6.646;2024-02-26T13:58:58;5.90;99.90
59146;DHT22;44928;53.074;6.646;2024-02-26T14:01:24;5.90;99.90
59146;DHT22;44928;53.074;6.646;2024-02-26T14:03:50;5.90;99.90
59146;DHT22;44928;53.074;6.646;2024-02-26T14:06:16;5.90;99.90
59146;DHT22;44928;53.074;6.646;2024-02-26T14:08:42;5.90;99.90
59146;DHT22;44928;53.074;6.646;2024-02-26T14:11:08;5.90;99.90
59146;DHT22;44928;53.074;6.646;2024-02-26T14:13:34;5.90;99.90
59146;DHT22;44928;53.074;6.646;2024-02-26T14:16:00;5.90;99.90
59146;DHT22;44928;53.074;6.646;2024-02-26T14:18:26;5.90;99.90
59146;DHT22;44928;53.074;6.646;2024-02-26T14:20:53;5.80;99.90
59146;DHT22;44928;53.074;6.646;2024-02-26T14:23:21;5.80;99.90
59146;DHT22;44928;53.074;6.646;2024-02-26T14:25:46;5.80;99.90
59146;DHT22;44928;53.074;6.646;2024-02-26T14:28:12;5.80;99.90
59146;DHT22;44928;53.074;6.646;2024-02-26T14:30:38;5.80;99.90
59146;DHT22;44928;53.074;6.646;2024-02-26T14:33:04;5.70;99.90
59146;DHT22;44928;53.074;6.646;2024-02-26T14:35:29;5.70;99.90
59146;DHT22;44928;53.074;6.646;2024-02-26T14:37:56;5.70;99.90
59146;DHT22;44928;53.074;6.646;2024-02-26T14:40:26;5.70;99.90
59146;DHT22;44928;53.074;6.646;2024-02-26T14:42:52;5.70;99.90
59146;DHT22;44928;53.074;6.646;2024-02-26T14:45:17;5.70;99.90
59146;DHT22;44928;53.074;6.646;2024-02-26T14:47:43;5.70;99.90
59146;DHT22;44928;53.074;6.646;2024-02-26T14:50:09;5.70;99.90
59146;DHT22;44928;53.074;6.646;2024-02-26T14:52:35;5.70;99.90
59146;DHT22;44928;53.074;6.646;2024-02-26T14:55:00;5.60;99.90
59146;DHT22;44928;53.074;6.646;2024-02-26T14:57:26;5.60;99.90
59146;DHT22;44928;53.074;6.646;2024-02-26T14:59:52;5.60;99.90
59146;DHT22;44928;53.074;6.646;2024-02-26T15:02:18;5.60;99.90
59146;DHT22;44928;53.074;6.646;2024-02-26T15:04:44;5.60;99.90
59146;DHT22;44928;53.074;6.646;2024-02-26T15:07:10;5.60;99.90
59146;DHT22;44928;53.074;6.646;2024-02-26T15:09:37;5.60;99.90
59146;DHT22;44928;53.074;6.646;2024-02-26T15:12:04;5.50;99.90
59146;DHT22;44928;53.074;6.646;2024-02-26T15:14:32;5.50;99.90
59146;DHT22;44928;53.074;6.646;2024-02-26T15:16:59;5.50;99.90
59146;DHT22;44928;53.074;6.646;2024-02-26T15:19:25;5.50;99.90
59146;DHT22;44928;53.074;6.646;2024-02-26T15:21:52;5.50;99.90
59146;DHT22;44928;53.074;6.646;2024-02-26T15:24:17;5.50;99.90
59146;DHT22;44928;53.074;6.646;2024-02-26T15:26:47;5.50;99.90
59146;DHT22;44928;53.074;6.646;2024-02-26T15:29:13;5.50;99.90
59146;DHT22;44928;53.074;6.646;2024-02-26T15:31:39;5.50;99.90
59146;DHT22;44928;53.074;6.646;2024-02-26T15:34:05;5.50;99.90
59146;DHT22;44928;53.074;6.646;2024-02-26T15:36:31;5.50;99.90
59146;DHT22;44928;53.074;6.646;2024-02-26T15:38:56;5.50;99.90
59146;DHT22;44928;53.074;6.646;2024-02-26T15:41:23;5.50;99.90
59146;DHT22;44928;53.074;6.646;2024-02-26T15:43:48;5.50;99.90
59146;DHT22;44928;53.074;6.646;2024-02-26T15:46:14;5.60;99.90
59146;DHT22;44928;53.074;6.646;2024-02-26T15:48:40;5.60;99.90